createdAt,value
2023-03-17T00:01:57.485Z,100815.41
2023-03-17T00:04:27.401Z,100821.70
2023-03-17T00:06:56.753Z,100821.52
2023-03-17T00:09:25.432Z,100822.26
2023-03-17T00:11:53.549Z,100816.87
2023-03-17T00:14:21.903Z,100812.11
2023-03-17T00:16:52.018Z,100804.59
2023-03-17T00:19:31.291Z,100802.61
2023-03-17T00:22:00.972Z,100802.59
2023-03-17T00:24:30.073Z,100797.52
2023-03-17T00:26:58.188Z,100796.55
2023-03-17T00:29:27.066Z,100794.17
2023-03-17T00:31:57.827Z,100791.73
2023-03-17T00:34:27.254Z,100789.30
2023-03-17T00:36:56.157Z,100792.04
2023-03-17T00:39:25.596Z,100788.45
2023-03-17T00:41:55.729Z,100794.25
2023-03-17T00:44:25.818Z,100789.95
2023-03-17T00:46:55.133Z,100788.99
2023-03-17T00:49:25.769Z,100792.61
2023-03-17T00:51:54.314Z,100792.72
2023-03-17T00:54:23.365Z,100791.90
2023-03-17T00:56:52.816Z,100794.23
2023-03-17T00:59:24.284Z,100794.24
2023-03-17T01:01:52.528Z,100790.71
2023-03-17T01:04:22.816Z,100795.31
2023-03-17T01:06:52.341Z,100797.27
2023-03-17T01:09:25.999Z,100799.74
2023-03-17T01:11:55.820Z,100801.52
2023-03-17T01:14:24.948Z,100793.73
2023-03-17T01:16:53.220Z,100792.36
2023-03-17T01:19:22.128Z,100796.80
2023-03-17T01:21:50.372Z,100796.22
2023-03-17T01:24:18.667Z,100795.94
2023-03-17T01:26:47.199Z,100796.11
2023-03-17T01:29:16.608Z,100795.72
2023-03-17T01:31:46.248Z,100796.14
2023-03-17T01:34:14.445Z,100797.42
2023-03-17T01:36:43.776Z,100801.59
2023-03-17T01:39:12.924Z,100799.24
2023-03-17T01:41:41.204Z,100796.19
2023-03-17T01:44:19.394Z,100799.29
2023-03-17T01:46:47.714Z,100802.66
2023-03-17T01:49:22.904Z,100803.25
2023-03-17T01:51:58.783Z,100800.85
2023-03-17T01:54:42.090Z,100798.66
2023-03-17T01:57:20.153Z,100800.95
2023-03-17T01:59:55.633Z,100803.02
2023-03-17T02:02:29.168Z,100804.23
2023-03-17T02:04:58.222Z,100804.92
2023-03-17T02:07:27.592Z,100807.89
2023-03-17T02:09:57.191Z,100813.58
2023-03-17T02:12:29.032Z,100820.84
2023-03-17T02:14:58.516Z,100815.96
2023-03-17T02:17:27.773Z,100818.09
2023-03-17T02:19:56.486Z,100817.31
2023-03-17T02:22:24.664Z,100814.12
2023-03-17T02:24:59.539Z,100811.89
2023-03-17T02:27:34.960Z,100811.50
2023-03-17T02:30:06.629Z,100809.66
2023-03-17T02:32:37.574Z,100810.13
2023-03-17T02:35:07.530Z,100807.05
2023-03-17T02:37:38.869Z,100810.06
2023-03-17T02:40:08.037Z,100811.98
2023-03-17T02:42:36.676Z,100818.54
2023-03-17T02:45:06.490Z,100821.85
2023-03-17T02:47:36.283Z,100823.46
2023-03-17T02:50:06.129Z,100826.95
2023-03-17T02:52:34.342Z,100830.83
2023-03-17T02:55:02.454Z,100835.24
2023-03-17T02:57:30.945Z,100839.92
2023-03-17T02:59:59.162Z,100840.15
2023-03-17T03:02:27.424Z,100841.23
2023-03-17T03:04:56.537Z,100842.16
2023-03-17T03:07:24.568Z,100845.79
2023-03-17T03:09:52.630Z,100851.05
2023-03-17T03:12:20.825Z,100853.97
2023-03-17T03:14:49.082Z,100854.77
2023-03-17T03:17:17.793Z,100856.77
2023-03-17T03:19:45.972Z,100856.24
2023-03-17T03:22:14.102Z,100859.93
2023-03-17T03:24:42.623Z,100859.11
2023-03-17T03:27:10.925Z,100862.48
2023-03-17T03:29:39.238Z,100865.79
2023-03-17T03:32:09.308Z,100870.45
2023-03-17T03:34:37.357Z,100870.61
2023-03-17T03:37:05.529Z,100874.70
2023-03-17T03:39:33.683Z,100878.05
2023-03-17T03:42:01.772Z,100880.35
2023-03-17T03:44:29.975Z,100874.33
2023-03-17T03:46:58.135Z,100869.27
2023-03-17T03:49:26.495Z,100867.66
2023-03-17T03:51:54.578Z,100866.45
2023-03-17T03:54:22.755Z,100868.17
2023-03-17T03:56:50.864Z,100872.05
2023-03-17T03:59:19.004Z,100871.09
2023-03-17T04:01:47.062Z,100866.40
2023-03-17T04:04:15.036Z,100868.00
2023-03-17T04:06:43.069Z,100865.98
2023-03-17T04:09:11.258Z,100859.05
2023-03-17T04:11:39.448Z,100859.77
2023-03-17T04:14:07.629Z,100851.81
2023-03-17T04:16:36.187Z,100850.59
2023-03-17T04:19:04.413Z,100850.05
2023-03-17T04:21:32.562Z,100845.52
2023-03-17T04:24:00.580Z,100843.41
2023-03-17T04:26:32.541Z,100841.29
2023-03-17T04:29:02.521Z,100844.88
2023-03-17T04:31:30.893Z,100852.51
2023-03-17T04:33:59.232Z,100856.21
2023-03-17T04:36:28.114Z,100858.20
2023-03-17T04:38:56.154Z,100858.51
2023-03-17T04:41:24.429Z,100855.15
2023-03-17T04:43:52.516Z,100851.68
2023-03-17T04:46:20.689Z,100848.80
2023-03-17T04:48:48.899Z,100846.83
2023-03-17T04:51:17.202Z,100849.71
2023-03-17T04:53:45.421Z,100850.59
2023-03-17T04:56:13.487Z,100851.95
2023-03-17T04:58:41.761Z,100851.19
2023-03-17T05:01:10.085Z,100851.67
2023-03-17T05:03:38.296Z,100853.80
2023-03-17T05:06:07.235Z,100861.42
2023-03-17T05:08:35.512Z,100856.43
2023-03-17T05:11:03.802Z,100853.06
2023-03-17T05:13:31.995Z,100855.72
2023-03-17T05:16:09.792Z,100860.11
2023-03-17T05:18:43.761Z,100865.60
2023-03-17T05:21:12.038Z,100873.90
2023-03-17T05:23:41.319Z,100878.45
2023-03-17T05:26:10.342Z,100874.70
2023-03-17T05:28:38.729Z,100877.91
2023-03-17T05:31:09.464Z,100883.98
2023-03-17T05:33:39.123Z,100886.58
2023-03-17T05:36:08.230Z,100890.20
2023-03-17T05:38:36.707Z,100892.98
2023-03-17T05:41:05.714Z,100890.45
2023-03-17T05:43:34.214Z,100896.52
2023-03-17T05:46:04.085Z,100897.98
2023-03-17T05:48:33.518Z,100897.83
2023-03-17T05:51:02.036Z,100899.96
2023-03-17T05:53:31.337Z,100894.63
2023-03-17T05:55:59.806Z,100899.73
2023-03-17T05:58:32.773Z,100901.04
2023-03-17T06:01:12.452Z,100901.53
2023-03-17T06:04:24.044Z,100904.11
2023-03-17T06:06:52.629Z,100903.20
2023-03-17T06:09:20.836Z,100908.73
2023-03-17T06:11:49.022Z,100911.10
2023-03-17T06:14:19.675Z,100918.93
2023-03-17T06:16:50.423Z,100920.66
2023-03-17T06:19:18.911Z,100919.88
2023-03-17T06:21:47.499Z,100922.70
2023-03-17T06:24:16.461Z,100923.61
2023-03-17T06:26:46.975Z,100922.50
2023-03-17T06:29:15.804Z,100926.61
2023-03-17T06:31:50.346Z,100928.95
2023-03-17T06:34:19.916Z,100928.25
2023-03-17T06:36:48.580Z,100928.52
2023-03-17T06:39:18.397Z,100931.58
2023-03-17T06:41:46.697Z,100932.40
2023-03-17T06:44:15.329Z,100933.03
2023-03-17T06:46:44.154Z,100933.48
2023-03-17T06:49:13.674Z,100935.16
2023-03-17T06:51:41.799Z,100934.33
2023-03-17T06:54:10.192Z,100934.85
2023-03-17T06:56:38.339Z,100933.36
2023-03-17T06:59:06.536Z,100933.45
2023-03-17T07:01:34.791Z,100933.39
2023-03-17T07:04:02.978Z,100934.89
2023-03-17T07:06:31.151Z,100937.95
2023-03-17T07:09:01.963Z,100936.46
2023-03-17T07:11:30.989Z,100936.82
2023-03-17T07:13:59.664Z,100933.45
2023-03-17T07:16:28.057Z,100931.86
2023-03-17T07:18:56.512Z,100930.35
2023-03-17T07:21:24.628Z,100930.30
2023-03-17T07:23:52.773Z,100930.20
2023-03-17T07:26:27.487Z,100925.51
2023-03-17T07:28:57.336Z,100924.13
2023-03-17T07:31:26.878Z,100924.15
2023-03-17T07:33:57.632Z,100922.92
2023-03-17T07:36:26.356Z,100920.69
2023-03-17T07:39:00.317Z,100921.48
2023-03-17T07:41:32.645Z,100921.63
2023-03-17T07:45:57.423Z,100925.83
2023-03-17T07:47:17.409Z,100929.36
2023-03-17T07:49:50.074Z,100930.60
2023-03-17T07:53:12.641Z,100922.39
2023-03-17T07:55:25.740Z,100916.34
2023-03-17T07:57:56.061Z,100912.66
2023-03-17T08:00:37.486Z,100905.39
2023-03-17T08:03:20.933Z,100906.36
2023-03-17T08:05:56.250Z,100910.23
2023-03-17T08:08:40.504Z,100906.70
2023-03-17T08:11:14.299Z,100903.80
2023-03-17T08:13:45.033Z,100898.27
2023-03-17T08:16:15.186Z,100894.02
2023-03-17T08:21:44.593Z,100886.04
2023-03-17T08:24:23.075Z,100886.73
2023-03-17T08:26:51.316Z,100885.97
2023-03-17T08:29:31.338Z,100887.34
2023-03-17T08:31:59.778Z,100884.51
2023-03-17T08:34:28.193Z,100886.52
2023-03-17T08:40:19.959Z,100873.99
2023-03-17T08:42:49.809Z,100877.54
2023-03-17T08:43:47.167Z,100877.67
2023-03-17T08:45:28.156Z,100882.31
2023-03-17T08:47:56.694Z,100886.86
2023-03-17T08:50:29.701Z,100891.59
2023-03-17T08:53:02.883Z,100890.15
2023-03-17T08:55:49.705Z,100891.79
2023-03-17T08:58:19.912Z,100898.79
2023-03-17T09:00:48.988Z,100898.86
2023-03-17T09:03:17.373Z,100899.69
2023-03-17T09:05:47.797Z,100901.84
2023-03-17T09:08:18.894Z,100906.47
2023-03-17T09:10:48.249Z,100904.64
2023-03-17T09:13:16.561Z,100908.08
2023-03-17T09:15:54.880Z,100908.34
2023-03-17T09:18:23.118Z,100908.73
2023-03-17T09:20:56.633Z,100905.73
2023-03-17T09:23:37.558Z,100906.65
2023-03-17T09:26:05.838Z,100912.41
2023-03-17T09:28:34.653Z,100912.80
2023-03-17T09:31:11.517Z,100904.48
2023-03-17T09:33:46.115Z,100899.97
2023-03-17T09:36:35.958Z,100899.65
2023-03-17T09:39:14.369Z,100893.77
2023-03-17T09:42:21.985Z,100887.77
2023-03-17T09:45:12.514Z,100895.50
2023-03-17T09:47:55.642Z,100892.80
2023-03-17T09:50:26.743Z,100890.34
2023-03-17T09:52:57.639Z,100891.31
2023-03-17T09:55:31.810Z,100891.27
2023-03-17T09:58:01.171Z,100892.73
2023-03-17T10:00:32.938Z,100894.52
2023-03-17T10:03:02.066Z,100890.40
2023-03-17T10:05:36.339Z,100892.73
2023-03-17T10:08:22.817Z,100888.48
2023-03-17T10:11:07.409Z,100888.77
2023-03-17T10:13:44.598Z,100886.77
2023-03-17T10:16:18.785Z,100888.40
2023-03-17T10:18:52.084Z,100887.44
2023-03-17T10:21:27.265Z,100883.44
2023-03-17T10:23:57.883Z,100886.21
2023-03-17T10:26:31.410Z,100890.66
2023-03-17T10:29:04.275Z,100887.48
2023-03-17T10:31:38.228Z,100883.70
2023-03-17T10:34:30.081Z,100878.71
2023-03-17T10:37:04.345Z,100872.06
2023-03-17T10:40:04.506Z,100871.23
2023-03-17T10:42:35.877Z,100870.85
2023-03-17T10:45:17.910Z,100875.58
2023-03-17T10:47:50.675Z,100871.48
2023-03-17T10:50:25.066Z,100863.29
2023-03-17T10:53:05.170Z,100867.77
2023-03-17T10:55:52.329Z,100867.77
2023-03-17T10:58:49.391Z,100860.50
2023-03-17T11:01:23.843Z,100857.02
2023-03-17T11:03:54.689Z,100852.52
2023-03-17T11:06:55.062Z,100844.52
2023-03-17T11:09:23.727Z,100837.27
2023-03-17T11:12:06.700Z,100837.73
2023-03-17T11:14:35.677Z,100838.33
2023-03-17T11:17:17.768Z,100835.95
2023-03-17T11:20:10.312Z,100831.88
2023-03-17T11:22:50.390Z,100828.94
2023-03-17T11:25:23.469Z,100837.55
2023-03-17T11:28:17.056Z,100837.27
2023-03-17T11:31:01.378Z,100828.65
2023-03-17T11:33:37.610Z,100825.77
2023-03-17T11:36:15.794Z,100820.29
2023-03-17T11:39:13.377Z,100821.46
2023-03-17T11:42:12.373Z,100824.48
2023-03-17T11:45:39.325Z,100814.89
2023-03-17T11:52:04.131Z,100806.43
2023-03-17T11:55:01.975Z,100802.02
2023-03-17T11:57:43.702Z,100795.27
2023-03-17T12:00:46.893Z,100799.70
2023-03-17T12:03:23.314Z,100794.95
2023-03-17T12:05:56.304Z,100795.75
2023-03-17T12:08:30.019Z,100790.59
2023-03-17T12:11:02.216Z,100790.44
2023-03-17T12:13:46.109Z,100787.40
2023-03-17T12:16:49.356Z,100786.27
2023-03-17T12:19:26.239Z,100778.30
2023-03-17T12:22:01.523Z,100777.95
2023-03-17T12:24:45.899Z,100776.85
2023-03-17T12:27:20.229Z,100774.23
2023-03-17T12:30:29.348Z,100770.80
2023-03-17T12:33:29.349Z,100769.67
2023-03-17T12:36:02.680Z,100761.54
2023-03-17T12:38:53.822Z,100763.85
2023-03-17T12:41:30.395Z,100763.41
2023-03-17T12:44:19.172Z,100761.34
2023-03-17T12:47:06.623Z,100751.59
2023-03-17T12:49:52.561Z,100745.70
2023-03-17T12:56:10.697Z,100739.52
2023-03-17T12:56:40.429Z,100740.27
2023-03-17T12:59:51.766Z,100734.50
2023-03-17T13:02:27.776Z,100729.30
2023-03-17T13:05:14.326Z,100736.14
2023-03-17T13:08:11.604Z,100731.81
2023-03-17T13:10:59.846Z,100733.30
2023-03-17T13:13:55.944Z,100731.62
2023-03-17T13:16:52.509Z,100733.97
2023-03-17T13:19:25.560Z,100728.86
2023-03-17T13:22:10.212Z,100724.38
2023-03-17T13:24:51.987Z,100724.80
2023-03-17T13:27:31.067Z,100719.48
2023-03-17T13:30:18.882Z,100714.08
2023-03-17T13:33:20.023Z,100713.08
2023-03-17T13:36:20.676Z,100714.88
2023-03-17T13:39:24.924Z,100710.39
2023-03-17T13:42:23.191Z,100712.75
2023-03-17T13:45:19.912Z,100712.09
2023-03-17T13:47:51.129Z,100711.33
2023-03-17T13:50:30.895Z,100710.92
2023-03-17T13:53:19.781Z,100704.08
2023-03-17T13:56:52.019Z,100701.51
2023-03-17T13:59:25.989Z,100710.71
2023-03-17T14:02:27.189Z,100713.73
2023-03-17T14:05:06.536Z,100709.10
2023-03-17T14:07:59.737Z,100699.05
2023-03-17T14:10:56.952Z,100701.73
2023-03-17T14:13:43.438Z,100698.10
2023-03-17T14:16:25.986Z,100694.13
2023-03-17T14:19:00.894Z,100689.75
2023-03-17T14:21:33.787Z,100687.59
2023-03-17T14:24:17.352Z,100686.85
2023-03-17T14:26:48.301Z,100683.48
2023-03-17T14:29:28.810Z,100679.23
2023-03-17T14:32:06.255Z,100679.67
2023-03-17T14:34:34.613Z,100673.71
2023-03-17T14:37:04.969Z,100674.51
2023-03-17T14:39:35.153Z,100675.07
2023-03-17T14:42:06.516Z,100676.86
2023-03-17T14:44:42.532Z,100671.89
2023-03-17T14:47:20.491Z,100670.48
2023-03-17T14:49:50.797Z,100665.44
2023-03-17T14:52:33.049Z,100666.19
2023-03-17T14:55:01.933Z,100662.05
2023-03-17T14:57:36.466Z,100662.30
2023-03-17T15:00:32.174Z,100666.06
2023-03-17T15:03:03.770Z,100662.02
2023-03-17T15:05:41.363Z,100657.38
2023-03-17T15:08:48.177Z,100657.84
2023-03-17T15:11:28.852Z,100658.66
2023-03-17T15:14:09.627Z,100659.70
2023-03-17T15:17:51.485Z,100654.22
2023-03-17T15:20:31.324Z,100652.79
2023-03-17T15:23:27.660Z,100657.58
2023-03-17T15:26:10.642Z,100656.09
2023-03-17T15:28:44.139Z,100659.96
2023-03-17T15:31:13.845Z,100660.48
2023-03-17T15:33:43.364Z,100657.13
2023-03-17T15:36:31.893Z,100656.75
2023-03-17T15:39:03.728Z,100657.16
2023-03-17T15:41:34.466Z,100662.18
2023-03-17T15:44:05.246Z,100656.17
2023-03-17T15:46:43.850Z,100651.05
2023-03-17T15:49:14.085Z,100648.94
2023-03-17T15:51:43.033Z,100649.05
2023-03-17T15:54:14.877Z,100649.53
2023-03-17T15:56:43.662Z,100655.34
2023-03-17T15:59:12.264Z,100655.85
2023-03-17T16:01:41.240Z,100647.08
2023-03-17T16:04:10.817Z,100647.42
2023-03-17T16:06:39.295Z,100653.40
2023-03-17T16:09:16.211Z,100652.52
2023-03-17T16:11:44.557Z,100653.52
2023-03-17T16:14:12.707Z,100652.84
2023-03-17T16:16:45.854Z,100651.27
2023-03-17T16:19:20.400Z,100650.53
2023-03-17T16:21:49.174Z,100655.28
2023-03-17T16:24:23.046Z,100658.68
2023-03-17T16:26:52.262Z,100656.27
2023-03-17T16:29:21.394Z,100650.92
2023-03-17T16:31:51.124Z,100660.61
2023-03-17T16:34:23.882Z,100662.23
2023-03-17T16:36:52.128Z,100660.30
2023-03-17T16:39:23.946Z,100659.12
2023-03-17T16:41:53.689Z,100660.72
2023-03-17T16:44:22.283Z,100658.68
2023-03-17T16:46:50.639Z,100657.61
2023-03-17T16:49:20.711Z,100659.39
2023-03-17T16:51:50.521Z,100660.59
2023-03-17T16:54:21.221Z,100664.41
2023-03-17T16:56:49.359Z,100663.15
2023-03-17T16:59:21.245Z,100667.49
2023-03-17T17:01:49.759Z,100668.73
2023-03-17T17:04:18.112Z,100670.58
2023-03-17T17:06:46.394Z,100675.13
2023-03-17T17:09:14.612Z,100682.84
2023-03-17T17:11:42.725Z,100682.61
2023-03-17T17:14:11.069Z,100688.14
2023-03-17T17:16:40.708Z,100686.80
2023-03-17T17:19:17.793Z,100683.57
2023-03-17T17:21:45.877Z,100680.98
2023-03-17T17:24:14.559Z,100683.63
2023-03-17T17:26:42.916Z,100681.89
2023-03-17T17:29:12.245Z,100682.38
2023-03-17T17:31:41.374Z,100679.87
2023-03-17T17:34:09.492Z,100681.58
2023-03-17T17:36:37.872Z,100680.38
2023-03-17T17:39:06.907Z,100685.23
2023-03-17T17:41:35.138Z,100688.67
2023-03-17T17:44:03.453Z,100689.83
2023-03-17T17:46:33.035Z,100690.52
2023-03-17T17:49:01.430Z,100689.23
2023-03-17T17:51:29.912Z,100686.24
2023-03-17T17:53:58.482Z,100689.83
2023-03-17T17:56:26.986Z,100689.38
2023-03-17T17:58:55.567Z,100689.36
2023-03-17T18:01:23.899Z,100694.42
2023-03-17T18:04:07.793Z,100696.61
2023-03-17T18:06:36.223Z,100696.98
2023-03-17T18:09:05.564Z,100697.45
2023-03-17T18:11:38.711Z,100702.18
2023-03-17T18:14:11.744Z,100698.70
2023-03-17T18:16:44.830Z,100698.12
2023-03-17T18:19:15.314Z,100699.86
2023-03-17T18:21:44.590Z,100703.16
2023-03-17T18:24:13.712Z,100705.62
2023-03-17T18:26:42.014Z,100702.19
2023-03-17T18:29:11.505Z,100701.54
2023-03-17T18:31:39.976Z,100700.54
2023-03-17T18:34:31.826Z,100700.08
2023-03-17T18:37:01.991Z,100696.53
2023-03-17T18:39:30.399Z,100693.81
2023-03-17T18:41:58.688Z,100695.80
2023-03-17T18:44:27.148Z,100690.40
2023-03-17T18:46:55.844Z,100685.17
2023-03-17T18:49:25.463Z,100684.75
2023-03-17T18:51:55.133Z,100683.20
2023-03-17T18:54:24.652Z,100682.23
2023-03-17T18:56:53.033Z,100681.63
2023-03-17T18:59:21.424Z,100679.61
2023-03-17T19:01:49.653Z,100680.42
2023-03-17T19:04:17.858Z,100677.73
2023-03-17T19:06:46.851Z,100680.43
2023-03-17T19:09:15.274Z,100682.44
2023-03-17T19:11:43.716Z,100681.79
2023-03-17T19:14:25.210Z,100679.98
2023-03-17T19:16:57.568Z,100675.60
2023-03-17T19:19:29.138Z,100676.38
2023-03-17T19:21:57.814Z,100678.66
2023-03-17T19:24:37.446Z,100680.80
2023-03-17T19:27:05.735Z,100682.63
2023-03-17T19:29:39.621Z,100683.54
2023-03-17T19:32:08.236Z,100685.00
2023-03-17T19:34:36.613Z,100679.68
2023-03-17T19:37:04.828Z,100680.00
2023-03-17T19:39:34.096Z,100683.93
2023-03-17T19:42:02.811Z,100682.54
2023-03-17T19:44:35.149Z,100683.11
2023-03-17T19:47:10.120Z,100681.48
2023-03-17T19:49:39.094Z,100675.27
2023-03-17T19:52:11.141Z,100675.59
2023-03-17T19:54:44.845Z,100675.77
2023-03-17T20:00:16.022Z,100668.50
2023-03-17T20:02:44.973Z,100665.92
2023-03-17T20:10:00.268Z,100659.93
2023-03-17T20:12:36.044Z,100659.19
2023-03-17T20:15:17.963Z,100652.61
2023-03-17T20:17:46.706Z,100651.73
2023-03-17T20:20:16.568Z,100647.50
2023-03-17T20:22:45.324Z,100648.31
2023-03-17T20:25:13.925Z,100647.55
2023-03-17T20:27:42.621Z,100644.30
2023-03-17T20:30:12.460Z,100645.77
2023-03-17T20:32:40.931Z,100642.09
2023-03-17T20:35:12.827Z,100640.29
2023-03-17T20:37:44.180Z,100640.27
2023-03-17T20:40:15.277Z,100635.40
2023-03-17T20:42:59.161Z,100635.93
2023-03-17T20:45:38.241Z,100638.05
2023-03-17T20:48:10.558Z,100638.09
2023-03-17T20:50:44.383Z,100636.97
2023-03-17T20:53:46.434Z,100635.73
2023-03-17T20:56:15.738Z,100636.59
2023-03-17T20:58:50.043Z,100634.94
2023-03-17T21:01:29.753Z,100633.91
2023-03-17T21:04:21.480Z,100631.59
2023-03-17T21:07:00.547Z,100633.41
2023-03-17T21:10:06.242Z,100629.86
2023-03-17T21:12:48.340Z,100635.20
2023-03-17T21:15:18.556Z,100634.52
2023-03-17T21:17:55.555Z,100634.52
2023-03-17T21:20:26.644Z,100630.09
2023-03-17T21:22:54.724Z,100632.33
2023-03-17T21:25:23.455Z,100631.07
2023-03-17T21:27:53.875Z,100626.71
2023-03-17T21:30:22.527Z,100624.02
2023-03-17T21:32:51.264Z,100628.45
2023-03-17T21:35:19.420Z,100625.85
2023-03-17T21:37:47.662Z,100623.95
2023-03-17T21:44:46.175Z,100628.62
2023-03-17T21:47:14.960Z,100629.48
2023-03-17T21:49:43.152Z,100627.27
2023-03-17T21:52:11.404Z,100629.46
2023-03-17T21:54:42.097Z,100630.00
2023-03-17T21:57:11.969Z,100633.14
2023-03-17T21:59:40.955Z,100631.25
2023-03-17T22:02:11.268Z,100630.45
2023-03-17T22:04:41.743Z,100629.96
2023-03-17T22:07:13.379Z,100631.11
2023-03-17T22:09:42.008Z,100629.56
2023-03-17T22:12:11.121Z,100630.67
2023-03-17T22:14:39.219Z,100632.37
2023-03-17T22:17:08.574Z,100631.27
2023-03-17T22:19:37.321Z,100629.85
2023-03-17T22:22:05.866Z,100629.34
2023-03-17T22:24:34.053Z,100627.36
2023-03-17T22:27:02.117Z,100625.32
2023-03-17T22:29:31.545Z,100624.78
2023-03-17T22:31:59.947Z,100621.55
2023-03-17T22:34:28.286Z,100619.52
2023-03-17T22:36:58.180Z,100619.07
2023-03-17T22:39:28.836Z,100622.14
2023-03-17T22:41:57.311Z,100620.86
2023-03-17T22:44:25.709Z,100620.60
2023-03-17T22:46:53.909Z,100620.25
2023-03-17T22:49:22.339Z,100619.36
2023-03-17T22:51:50.523Z,100621.38
2023-03-17T22:54:18.942Z,100618.27
2023-03-17T22:56:50.867Z,100623.17
2023-03-17T22:59:22.191Z,100620.96
2023-03-17T23:01:52.748Z,100625.09
2023-03-17T23:04:20.990Z,100622.19
2023-03-17T23:06:49.203Z,100622.64
2023-03-17T23:09:17.262Z,100621.19
2023-03-17T23:11:45.710Z,100620.98
2023-03-17T23:14:13.891Z,100617.58
2023-03-17T23:16:49.405Z,100620.93
2023-03-17T23:19:17.763Z,100627.17
2023-03-17T23:21:46.390Z,100625.52
2023-03-17T23:24:17.496Z,100623.64
2023-03-17T23:26:48.916Z,100620.48
2023-03-17T23:29:19.123Z,100620.77
2023-03-17T23:31:47.734Z,100619.99
2023-03-17T23:34:16.011Z,100617.91
2023-03-17T23:36:44.092Z,100613.52
2023-03-17T23:39:12.321Z,100615.61
2023-03-17T23:41:40.388Z,100618.48
2023-03-17T23:44:09.608Z,100621.35
2023-03-17T23:46:38.825Z,100618.90
2023-03-17T23:49:12.241Z,100614.61
2023-03-17T23:51:40.972Z,100613.26
2023-03-17T23:54:18.481Z,100609.23
2023-03-17T23:56:50.835Z,100610.88
2023-03-17T23:59:18.888Z,100610.08
